createdAt,value
2023-04-04T00:00:54.309Z,0.85
2023-04-04T00:03:26.138Z,1.02
2023-04-04T00:05:56.258Z,0.90
2023-04-04T00:08:27.180Z,0.80
2023-04-04T00:10:59.995Z,0.70
2023-04-04T00:13:30.996Z,0.70
2023-04-04T00:15:59.946Z,0.90
2023-04-04T00:18:27.716Z,1.10
2023-04-04T00:20:56.702Z,0.80
2023-04-04T00:23:24.464Z,0.80
2023-04-04T00:25:52.337Z,0.80
2023-04-04T00:28:20.728Z,0.80
2023-04-04T00:30:49.394Z,0.95
2023-04-04T00:33:19.476Z,1.05
2023-04-04T00:35:50.807Z,1.00
2023-04-04T00:38:17.998Z,0.77
2023-04-04T00:40:49.307Z,0.73
2023-04-04T00:43:19.550Z,0.80
2023-04-04T00:45:46.143Z,0.82
2023-04-04T00:48:16.389Z,0.93
2023-04-04T00:50:46.437Z,0.90
2023-04-04T00:53:14.727Z,0.98
2023-04-04T00:55:43.623Z,0.93
2023-04-04T00:58:14.022Z,0.77
2023-04-04T01:00:41.952Z,0.90
2023-04-04T01:03:14.144Z,0.70
2023-04-04T01:05:41.849Z,0.80
2023-04-04T01:08:10.360Z,1.08
2023-04-04T01:10:39.560Z,0.88
2023-04-04T01:13:07.405Z,0.88
2023-04-04T01:15:35.318Z,0.82
2023-04-04T01:18:04.349Z,0.90
2023-04-04T01:20:35.645Z,1.10
2023-04-04T01:23:05.101Z,1.02
2023-04-04T01:25:32.947Z,0.80
2023-04-04T01:28:01.300Z,0.80
2023-04-04T01:30:34.138Z,0.93
2023-04-04T01:33:13.763Z,0.90
2023-04-04T01:36:04.682Z,0.70
2023-04-04T01:38:57.647Z,0.88
2023-04-04T01:41:28.033Z,0.95
2023-04-04T01:43:56.557Z,0.90
2023-04-04T01:46:24.763Z,1.05
2023-04-04T01:48:52.718Z,1.10
2023-04-04T01:51:22.289Z,0.93
2023-04-04T01:53:50.028Z,1.02
2023-04-04T01:56:17.981Z,0.93
2023-04-04T01:58:44.670Z,1.00
2023-04-04T02:01:13.619Z,1.02
2023-04-04T02:03:41.131Z,0.93
2023-04-04T02:06:09.481Z,0.85
2023-04-04T02:08:38.806Z,0.75
2023-04-04T02:11:06.348Z,0.98
2023-04-04T02:13:33.463Z,0.90
2023-04-04T02:16:00.927Z,0.90
2023-04-04T02:18:29.352Z,0.80
2023-04-04T02:20:57.301Z,1.00
2023-04-04T02:23:25.081Z,0.80
2023-04-04T02:25:53.069Z,0.80
2023-04-04T02:28:20.700Z,0.98
2023-04-04T02:30:50.160Z,0.90
2023-04-04T02:33:17.734Z,0.93
2023-04-04T02:35:44.828Z,0.80
2023-04-04T02:38:13.207Z,0.98
2023-04-04T02:40:42.300Z,0.80
2023-04-04T02:43:10.689Z,0.70
2023-04-04T02:45:37.809Z,0.65
2023-04-04T02:48:09.528Z,0.70
2023-04-04T02:50:39.271Z,0.70
2023-04-04T02:53:08.155Z,0.70
2023-04-04T02:55:37.353Z,0.80
2023-04-04T02:58:04.772Z,0.80
2023-04-04T03:00:32.480Z,0.80
2023-04-04T03:03:01.227Z,0.70
2023-04-04T03:05:33.245Z,0.70
2023-04-04T03:08:00.952Z,0.40
2023-04-04T03:10:30.923Z,0.68
2023-04-04T03:12:59.126Z,0.63
2023-04-04T03:15:28.938Z,0.70
2023-04-04T03:17:55.675Z,0.60
2023-04-04T03:20:25.216Z,0.50
2023-04-04T03:22:52.425Z,0.57
2023-04-04T03:25:19.358Z,0.60
2023-04-04T03:27:47.582Z,0.60
2023-04-04T03:30:14.470Z,0.50
2023-04-04T03:32:40.843Z,0.60
2023-04-04T03:35:08.141Z,0.75
2023-04-04T03:37:36.021Z,0.60
2023-04-04T03:40:03.429Z,0.50
2023-04-04T03:42:35.155Z,0.50
2023-04-04T03:45:03.122Z,0.77
2023-04-04T03:47:29.894Z,0.45
2023-04-04T03:49:57.201Z,0.35
2023-04-04T03:52:23.790Z,0.30
2023-04-04T03:54:51.017Z,0.60
2023-04-04T03:57:19.359Z,0.80
2023-04-04T03:59:46.818Z,0.40
2023-04-04T04:02:13.189Z,0.50
2023-04-04T04:04:39.674Z,0.47
2023-04-04T04:07:06.626Z,0.40
2023-04-04T04:09:33.631Z,0.60
2023-04-04T04:12:00.615Z,0.50
2023-04-04T04:14:27.238Z,0.35
2023-04-04T04:16:54.046Z,0.50
2023-04-04T04:19:21.342Z,0.50
2023-04-04T04:21:47.918Z,0.40
2023-04-04T04:24:14.740Z,0.57
2023-04-04T04:26:42.050Z,0.45
2023-04-04T04:29:08.597Z,0.28
2023-04-04T04:31:36.478Z,0.43
2023-04-04T04:34:11.057Z,0.30
2023-04-04T04:36:39.456Z,0.50
2023-04-04T04:39:06.780Z,0.45
2023-04-04T04:41:33.740Z,0.40
2023-04-04T04:44:00.235Z,0.30
2023-04-04T04:46:26.451Z,0.60
2023-04-04T04:48:52.882Z,0.40
2023-04-04T04:51:19.918Z,0.35
2023-04-04T04:53:46.327Z,0.40
2023-04-04T04:56:13.483Z,0.40
2023-04-04T04:58:40.375Z,0.40
2023-04-04T05:01:07.421Z,0.35
2023-04-04T05:03:34.400Z,0.30
2023-04-04T05:06:01.287Z,0.30
2023-04-04T05:08:28.471Z,0.50
2023-04-04T05:10:54.748Z,0.80
2023-04-04T05:13:21.608Z,0.70
2023-04-04T05:15:48.838Z,0.50
2023-04-04T05:18:16.362Z,1.15
2023-04-04T05:20:49.680Z,0.93
2023-04-04T05:23:17.096Z,0.80
2023-04-04T05:25:44.062Z,0.60
2023-04-04T05:28:11.791Z,0.88
2023-04-04T05:30:39.263Z,0.68
2023-04-04T05:33:06.229Z,0.73
2023-04-04T05:35:33.256Z,0.73
2023-04-04T05:38:00.154Z,0.70
2023-04-04T05:40:26.546Z,0.77
2023-04-04T05:42:57.332Z,0.93
2023-04-04T05:45:24.278Z,0.60
2023-04-04T05:47:50.941Z,0.80
2023-04-04T05:50:17.834Z,0.80
2023-04-04T05:52:46.397Z,0.90
2023-04-04T05:55:14.858Z,0.90
2023-04-04T05:57:49.653Z,0.80
2023-04-04T06:00:17.640Z,0.70
2023-04-04T06:02:44.583Z,0.80
2023-04-04T06:05:11.255Z,1.20
2023-04-04T06:07:38.030Z,0.85
2023-04-04T06:10:05.926Z,0.80
2023-04-04T06:12:33.157Z,1.00
2023-04-04T06:15:00.665Z,0.68
2023-04-04T06:17:27.415Z,1.27
2023-04-04T06:19:55.297Z,1.13
2023-04-04T06:22:21.975Z,0.73
2023-04-04T06:24:49.192Z,1.00
2023-04-04T06:27:15.450Z,0.73
2023-04-04T06:29:43.806Z,1.10
2023-04-04T06:32:12.422Z,0.82
2023-04-04T06:34:40.377Z,1.05
2023-04-04T06:37:10.446Z,1.10
2023-04-04T06:39:40.295Z,1.23
2023-04-04T06:42:08.471Z,0.98
2023-04-04T06:44:39.156Z,1.02
2023-04-04T06:47:06.623Z,1.10
2023-04-04T06:49:34.787Z,1.10
2023-04-04T06:52:02.707Z,0.80
2023-04-04T06:54:30.612Z,1.20
2023-04-04T06:56:57.587Z,0.90
2023-04-04T06:59:26.293Z,1.10
2023-04-04T07:01:54.645Z,1.20
2023-04-04T07:04:21.406Z,1.20
2023-04-04T07:06:49.574Z,0.98
2023-04-04T07:09:28.156Z,1.10
2023-04-04T07:11:56.151Z,1.17
2023-04-04T07:14:27.648Z,2.00
2023-04-04T07:16:54.809Z,1.10
2023-04-04T07:19:28.707Z,1.20
2023-04-04T07:21:56.193Z,1.00
2023-04-04T07:24:23.201Z,1.17
2023-04-04T07:26:49.952Z,1.17
2023-04-04T07:29:16.859Z,1.10
2023-04-04T07:31:43.030Z,1.02
2023-04-04T07:34:09.694Z,1.30
2023-04-04T07:36:37.036Z,0.93
2023-04-04T07:39:05.018Z,0.90
2023-04-04T07:41:34.427Z,1.00
2023-04-04T07:44:03.909Z,1.23
2023-04-04T07:46:30.718Z,1.00
2023-04-04T07:48:58.647Z,1.10
2023-04-04T07:51:31.019Z,1.23
2023-04-04T07:53:59.697Z,1.00
2023-04-04T07:56:28.349Z,1.10
2023-04-04T07:58:58.096Z,1.10
2023-04-04T08:01:28.742Z,1.02
2023-04-04T08:03:56.471Z,1.10
2023-04-04T08:06:23.660Z,1.25
2023-04-04T08:08:52.650Z,1.20
2023-04-04T08:11:23.139Z,1.15
2023-04-04T08:13:51.055Z,1.13
2023-04-04T08:16:20.525Z,0.98
2023-04-04T08:18:47.292Z,1.30
2023-04-04T08:21:15.223Z,1.10
2023-04-04T08:23:43.742Z,1.02
2023-04-04T08:26:12.227Z,1.10
2023-04-04T08:28:40.660Z,1.10
2023-04-04T08:31:10.600Z,1.02
2023-04-04T08:33:47.239Z,1.00
2023-04-04T08:36:17.809Z,1.20
2023-04-04T08:38:45.803Z,1.05
2023-04-04T08:41:15.139Z,1.10
2023-04-04T08:43:55.598Z,1.05
2023-04-04T08:46:25.950Z,1.20
2023-04-04T08:48:56.181Z,0.90
2023-04-04T08:51:26.470Z,1.05
2023-04-04T08:53:54.661Z,0.93
2023-04-04T08:56:21.683Z,0.80
2023-04-04T08:58:47.836Z,0.90
2023-04-04T09:01:16.502Z,1.30
2023-04-04T09:03:45.335Z,1.10
2023-04-04T09:06:14.061Z,0.88
2023-04-04T09:08:42.532Z,1.00
2023-04-04T09:11:12.848Z,1.30
2023-04-04T09:13:41.589Z,1.08
2023-04-04T09:16:10.507Z,1.10
2023-04-04T09:18:38.288Z,0.90
2023-04-04T09:21:13.587Z,1.10
2023-04-04T09:23:41.088Z,0.88
2023-04-04T09:26:09.078Z,0.90
2023-04-04T09:28:36.135Z,1.08
2023-04-04T09:31:06.822Z,0.75
2023-04-04T09:33:34.604Z,1.00
2023-04-04T09:36:11.566Z,1.00
2023-04-04T09:38:46.399Z,1.15
2023-04-04T09:41:18.867Z,0.90
2023-04-04T09:43:48.764Z,0.77
2023-04-04T09:46:20.762Z,0.93
2023-04-04T09:48:50.886Z,0.93
2023-04-04T09:51:18.573Z,0.77
2023-04-04T09:53:48.652Z,0.88
2023-04-04T09:56:15.698Z,1.20
2023-04-04T09:59:00.294Z,1.00
2023-04-04T10:01:30.945Z,0.90
2023-04-04T10:03:58.104Z,0.75
2023-04-04T10:06:26.753Z,0.95
2023-04-04T10:08:55.580Z,0.70
2023-04-04T10:11:34.530Z,0.63
2023-04-04T10:14:03.432Z,1.00
2023-04-04T10:16:40.382Z,0.77
2023-04-04T10:19:12.172Z,0.80
2023-04-04T10:21:38.700Z,0.70
2023-04-04T10:24:09.759Z,0.80
2023-04-04T10:26:37.371Z,0.82
2023-04-04T10:29:06.102Z,0.75
2023-04-04T10:31:36.677Z,1.00
2023-04-04T10:34:13.395Z,0.82
2023-04-04T10:37:03.548Z,0.90
2023-04-04T10:39:45.324Z,0.98
2023-04-04T10:42:18.420Z,0.93
2023-04-04T10:44:48.891Z,0.80
2023-04-04T10:47:22.421Z,0.90
2023-04-04T10:49:52.106Z,1.00
2023-04-04T10:52:21.979Z,0.90
2023-04-04T10:55:00.049Z,1.00
2023-04-04T10:57:28.375Z,0.90
2023-04-04T11:00:13.062Z,0.80
2023-04-04T11:02:51.624Z,1.00
2023-04-04T11:05:37.131Z,0.60
2023-04-04T11:08:08.616Z,0.80
2023-04-04T11:10:57.577Z,0.82
2023-04-04T11:13:38.390Z,0.77
2023-04-04T11:16:09.537Z,0.60
2023-04-04T11:18:40.709Z,0.80
2023-04-04T11:21:11.064Z,0.90
2023-04-04T11:24:13.626Z,1.02
2023-04-04T11:26:44.904Z,0.90
2023-04-04T11:29:23.618Z,0.90
2023-04-04T11:31:51.707Z,1.02
2023-04-04T11:34:32.347Z,0.90
2023-04-04T11:37:01.556Z,0.88
2023-04-04T11:39:31.032Z,0.60
2023-04-04T11:42:13.074Z,0.80
2023-04-04T11:44:50.085Z,0.63
2023-04-04T11:47:23.332Z,0.80
2023-04-04T11:49:51.452Z,0.68
2023-04-04T11:52:19.155Z,0.75
2023-04-04T11:54:48.308Z,0.80
2023-04-04T11:57:19.539Z,0.88
2023-04-04T11:59:49.507Z,0.85
2023-04-04T12:02:24.200Z,0.90
2023-04-04T12:04:52.064Z,0.77
2023-04-04T12:07:21.125Z,0.73
2023-04-04T12:09:49.901Z,0.90
2023-04-04T12:12:16.956Z,0.70
2023-04-04T12:14:44.614Z,0.77
2023-04-04T12:17:14.271Z,0.73
2023-04-04T12:19:41.264Z,0.70
2023-04-04T12:22:08.382Z,0.70
2023-04-04T12:24:39.304Z,0.73
2023-04-04T12:27:07.453Z,0.77
2023-04-04T12:29:38.429Z,0.73
2023-04-04T12:32:07.879Z,0.55
2023-04-04T12:34:48.680Z,0.93
2023-04-04T12:37:24.115Z,0.73
2023-04-04T12:39:55.136Z,0.80
2023-04-04T12:42:27.828Z,0.80
2023-04-04T12:44:58.375Z,0.70
2023-04-04T12:47:30.226Z,0.88
2023-04-04T12:49:57.957Z,0.80
2023-04-04T12:52:32.919Z,0.88
2023-04-04T12:55:10.981Z,0.60
2023-04-04T12:57:40.618Z,0.60
2023-04-04T13:00:09.717Z,0.80
2023-04-04T13:02:38.796Z,0.88
2023-04-04T13:05:07.547Z,0.50
2023-04-04T13:07:44.152Z,0.80
2023-04-04T13:10:19.186Z,0.80
2023-04-04T13:13:01.729Z,0.60
2023-04-04T13:15:53.978Z,0.82
2023-04-04T13:18:22.879Z,0.60
2023-04-04T13:20:55.421Z,0.50
2023-04-04T13:23:25.602Z,0.88
2023-04-04T13:25:53.361Z,0.60
2023-04-04T13:28:24.273Z,0.70
2023-04-04T13:30:52.772Z,0.88
2023-04-04T13:33:21.757Z,0.60
2023-04-04T13:35:51.643Z,0.55
2023-04-04T13:38:17.800Z,0.60
2023-04-04T13:40:46.677Z,0.60
2023-04-04T13:43:14.653Z,0.80
2023-04-04T13:45:50.308Z,0.50
2023-04-04T13:48:18.450Z,0.60
2023-04-04T13:50:52.190Z,0.70
2023-04-04T13:53:23.522Z,0.52
2023-04-04T13:56:17.217Z,0.70
2023-04-04T13:58:44.479Z,0.70
2023-04-04T14:01:14.185Z,0.40
2023-04-04T14:03:44.386Z,0.80
2023-04-04T14:06:11.830Z,0.65
2023-04-04T14:08:43.373Z,0.60
2023-04-04T14:11:10.274Z,0.68
2023-04-04T14:13:37.687Z,0.57
2023-04-04T14:16:05.606Z,0.50
2023-04-04T14:18:34.898Z,0.70
2023-04-04T14:21:05.811Z,0.82
2023-04-04T14:23:33.662Z,0.50
2023-04-04T14:26:05.191Z,0.55
2023-04-04T14:28:32.672Z,0.60
2023-04-04T14:31:01.719Z,0.75
2023-04-04T14:33:29.356Z,0.50
2023-04-04T14:35:56.700Z,0.65
2023-04-04T14:38:24.092Z,0.60
2023-04-04T14:40:52.473Z,0.60
2023-04-04T14:43:19.929Z,0.60
2023-04-04T14:45:48.780Z,0.50
2023-04-04T14:48:16.809Z,0.75
2023-04-04T14:50:43.498Z,0.50
2023-04-04T14:53:11.426Z,0.60
2023-04-04T14:55:38.349Z,0.73
2023-04-04T14:58:06.722Z,0.70
2023-04-04T15:00:37.715Z,0.60
2023-04-04T15:03:08.191Z,0.70
2023-04-04T15:05:40.203Z,0.68
2023-04-04T15:08:10.370Z,0.63
2023-04-04T15:10:38.562Z,0.35
2023-04-04T15:13:07.717Z,0.60
2023-04-04T15:15:34.404Z,0.40
2023-04-04T15:18:04.036Z,0.30
2023-04-04T15:20:32.023Z,0.40
2023-04-04T15:23:00.100Z,0.40
2023-04-04T15:25:29.725Z,0.40
2023-04-04T15:27:59.805Z,0.32
2023-04-04T15:30:29.707Z,0.40
2023-04-04T15:32:57.472Z,0.32
2023-04-04T15:35:29.082Z,0.40
2023-04-04T15:37:57.209Z,0.43
2023-04-04T15:40:25.862Z,0.30
2023-04-04T15:42:57.989Z,0.60
2023-04-04T15:45:27.005Z,0.30
2023-04-04T15:47:57.554Z,0.40
2023-04-04T15:50:26.427Z,0.30
2023-04-04T15:52:57.990Z,0.25
2023-04-04T15:55:26.441Z,0.38
2023-04-04T15:57:56.065Z,0.43
2023-04-04T16:00:24.811Z,0.40
2023-04-04T16:02:52.878Z,0.30
2023-04-04T16:05:23.059Z,0.40
2023-04-04T16:07:51.428Z,0.25
2023-04-04T16:10:20.892Z,0.30
2023-04-04T16:12:52.392Z,0.30
2023-04-04T16:15:24.145Z,0.38
2023-04-04T16:18:00.976Z,0.30
2023-04-04T16:20:33.576Z,0.40
2023-04-04T16:23:05.154Z,0.40
2023-04-04T16:25:33.117Z,0.60
2023-04-04T16:28:03.508Z,0.20
2023-04-04T16:30:33.890Z,0.20
2023-04-04T16:33:02.074Z,0.30
2023-04-04T16:35:33.932Z,0.17
2023-04-04T16:38:02.479Z,0.32
2023-04-04T16:40:30.844Z,0.20
2023-04-04T16:42:58.921Z,0.30
2023-04-04T16:45:28.085Z,0.20
2023-04-04T16:47:57.169Z,0.20
2023-04-04T16:50:26.221Z,0.28
2023-04-04T16:52:54.711Z,0.35
2023-04-04T16:55:26.107Z,0.20
2023-04-04T16:57:55.256Z,0.25
2023-04-04T17:00:23.983Z,0.20
2023-04-04T17:02:52.601Z,0.47
2023-04-04T17:05:20.805Z,0.30
2023-04-04T17:07:48.866Z,0.40
2023-04-04T17:10:17.458Z,0.65
2023-04-04T17:12:44.695Z,0.40
2023-04-04T17:15:17.684Z,0.30
2023-04-04T17:17:45.618Z,0.40
2023-04-04T17:20:18.470Z,0.38
2023-04-04T17:22:52.577Z,0.20
2023-04-04T17:25:27.375Z,0.30
2023-04-04T17:28:01.130Z,0.40
2023-04-04T17:30:29.703Z,0.30
2023-04-04T17:32:56.812Z,0.30
2023-04-04T17:35:27.504Z,0.30
2023-04-04T17:37:57.992Z,0.20
2023-04-04T17:40:25.790Z,0.77
2023-04-04T17:42:54.793Z,0.32
2023-04-04T17:45:22.430Z,0.32
2023-04-04T17:47:52.878Z,0.50
2023-04-04T17:50:21.802Z,0.30
2023-04-04T17:52:52.735Z,0.47
2023-04-04T17:55:23.230Z,0.30
2023-04-04T17:57:49.710Z,0.40
2023-04-04T18:00:20.319Z,0.30
2023-04-04T18:02:50.797Z,0.47
2023-04-04T18:05:18.684Z,0.50
2023-04-04T18:07:45.692Z,0.32
2023-04-04T18:10:13.923Z,0.30
2023-04-04T18:12:41.242Z,0.32
2023-04-04T18:15:10.719Z,0.30
2023-04-04T18:17:41.879Z,0.40
2023-04-04T18:20:12.706Z,0.40
2023-04-04T18:22:43.813Z,0.30
2023-04-04T18:25:13.913Z,0.40
2023-04-04T18:27:40.942Z,0.40
2023-04-04T18:30:12.428Z,0.35
2023-04-04T18:32:40.410Z,0.40
2023-04-04T18:35:10.963Z,0.40
2023-04-04T18:37:40.166Z,0.50
2023-04-04T18:40:08.920Z,0.40
2023-04-04T18:42:37.521Z,0.60
2023-04-04T18:45:06.263Z,0.43
2023-04-04T18:47:34.830Z,0.50
2023-04-04T18:50:04.229Z,0.40
2023-04-04T18:52:31.098Z,0.60
2023-04-04T18:55:00.255Z,0.40
2023-04-04T18:57:29.228Z,0.45
2023-04-04T18:59:59.074Z,0.40
2023-04-04T19:02:27.591Z,0.40
2023-04-04T19:04:58.334Z,0.45
2023-04-04T19:07:28.220Z,0.40
2023-04-04T19:09:57.473Z,0.40
2023-04-04T19:12:26.680Z,0.45
2023-04-04T19:14:56.123Z,0.50
2023-04-04T19:17:22.812Z,0.40
2023-04-04T19:19:52.398Z,0.57
2023-04-04T19:22:19.665Z,0.60
2023-04-04T19:24:47.364Z,0.70
2023-04-04T19:27:15.892Z,0.40
2023-04-04T19:29:45.597Z,0.50
2023-04-04T19:32:17.485Z,0.50
2023-04-04T19:34:45.033Z,0.40
2023-04-04T19:37:13.581Z,0.55
2023-04-04T19:39:43.724Z,0.47
2023-04-04T19:42:12.019Z,0.63
2023-04-04T19:44:41.042Z,0.60
2023-04-04T19:47:16.692Z,0.43
2023-04-04T19:49:45.757Z,0.60
2023-04-04T19:52:16.320Z,0.60
2023-04-04T19:54:44.936Z,0.40
2023-04-04T19:57:22.387Z,0.80
2023-04-04T20:00:02.772Z,0.68
2023-04-04T20:02:33.331Z,0.47
2023-04-04T20:05:00.900Z,0.60
2023-04-04T20:07:30.927Z,0.52
2023-04-04T20:09:58.663Z,0.50
2023-04-04T20:12:27.498Z,0.60
2023-04-04T20:14:59.011Z,0.60
2023-04-04T20:17:25.976Z,0.80
2023-04-04T20:19:53.317Z,0.57
2023-04-04T20:22:20.213Z,0.80
2023-04-04T20:24:49.617Z,0.75
2023-04-04T20:27:28.721Z,0.50
2023-04-04T20:29:55.622Z,0.75
2023-04-04T20:32:24.532Z,0.82
2023-04-04T20:34:53.263Z,0.50
2023-04-04T20:37:26.697Z,0.60
2023-04-04T20:39:56.019Z,0.40
2023-04-04T20:42:41.374Z,0.70
2023-04-04T20:45:27.111Z,0.60
2023-04-04T20:48:06.768Z,0.60
2023-04-04T20:50:33.978Z,0.73
2023-04-04T20:53:03.330Z,0.70
2023-04-04T20:55:31.582Z,0.93
2023-04-04T20:58:09.538Z,0.60
2023-04-04T21:00:42.695Z,0.75
2023-04-04T21:03:24.831Z,0.52
2023-04-04T21:05:52.985Z,0.50
2023-04-04T21:08:20.256Z,0.70
2023-04-04T21:10:56.421Z,0.80
2023-04-04T21:13:42.726Z,0.70
2023-04-04T21:16:19.296Z,0.73
2023-04-04T21:18:48.025Z,0.80
2023-04-04T21:21:22.819Z,0.85
2023-04-04T21:23:55.738Z,0.70
2023-04-04T21:26:36.448Z,0.70
2023-04-04T21:29:25.091Z,0.80
2023-04-04T21:31:56.406Z,0.60
2023-04-04T21:34:28.210Z,0.55
2023-04-04T21:37:00.134Z,0.68
2023-04-04T21:39:30.154Z,0.80
2023-04-04T21:42:07.133Z,1.00
2023-04-04T21:44:35.289Z,0.70
2023-04-04T21:47:02.992Z,0.70
2023-04-04T21:49:29.848Z,0.80
2023-04-04T21:51:58.241Z,0.95
2023-04-04T21:54:26.698Z,0.70
2023-04-04T21:56:53.846Z,0.70
2023-04-04T21:59:20.381Z,0.70
2023-04-04T22:01:50.123Z,0.77
2023-04-04T22:04:17.909Z,0.70
2023-04-04T22:06:46.869Z,0.68
2023-04-04T22:09:16.285Z,0.80
2023-04-04T22:11:47.066Z,0.90
2023-04-04T22:14:17.026Z,0.90
2023-04-04T22:16:45.004Z,0.90
2023-04-04T22:19:13.409Z,0.80
2023-04-04T22:21:48.748Z,0.90
2023-04-04T22:24:18.846Z,1.00
2023-04-04T22:26:47.962Z,0.73
2023-04-04T22:29:14.754Z,0.80
2023-04-04T22:31:45.107Z,0.52
2023-04-04T22:34:15.813Z,0.80
2023-04-04T22:36:45.775Z,0.95
2023-04-04T22:39:16.149Z,0.90
2023-04-04T22:41:43.738Z,1.17
2023-04-04T22:44:11.534Z,0.77
2023-04-04T22:46:39.036Z,0.85
2023-04-04T22:49:07.546Z,0.80
2023-04-04T22:51:45.969Z,0.82
2023-04-04T22:54:15.773Z,1.00
2023-04-04T22:56:43.606Z,0.80
2023-04-04T22:59:13.164Z,0.77
2023-04-04T23:01:42.360Z,0.80
2023-04-04T23:04:09.404Z,1.10
2023-04-04T23:06:39.086Z,0.60
2023-04-04T23:09:08.042Z,0.95
2023-04-04T23:11:36.661Z,1.02
2023-04-04T23:14:09.936Z,0.80
2023-04-04T23:16:37.912Z,0.88
2023-04-04T23:19:08.503Z,1.00
2023-04-04T23:21:38.073Z,1.00
2023-04-04T23:24:07.151Z,0.95
2023-04-04T23:26:34.283Z,0.90
2023-04-04T23:29:04.042Z,0.80
2023-04-04T23:31:32.045Z,0.95
2023-04-04T23:33:59.220Z,0.88
2023-04-04T23:36:28.417Z,0.80
2023-04-04T23:38:56.202Z,0.80
2023-04-04T23:41:24.151Z,0.90
2023-04-04T23:43:53.816Z,0.88
2023-04-04T23:46:22.743Z,1.00
2023-04-04T23:48:52.199Z,0.95
2023-04-04T23:51:19.836Z,0.93
2023-04-04T23:53:47.184Z,1.05
2023-04-04T23:56:14.500Z,0.82
2023-04-04T23:58:42.361Z,0.90
